KHTS/HTS METAR and TAF weather

Enter ICAO airport designator
Station Type Date Time Source
KHTS METAR 2022/06/30 12:51 UTC NOAA

KHTS 301251Z 00000KT 10SM CLR 21/16 A3022 RMK AO2 SLP227 T02060156


Station Type Date Time Source
KHTS Decoded METAR 2022/06/30 12:51 UTC NOAA

TRI-STATE AIRPORT, WV, United States (KHTS) 38-22N 082-33W 254M
Jun 30, 2022 - 08:51 AM EDT / 2022.06.30 1251 UTC
Wind: Calm:0
Visibility: 10 mile(s):0
Sky conditions: clear
Temperature: 69.1 F (20.6 C)
Dew Point: 60.1 F (15.6 C)
Relative Humidity: 73%
Pressure (altimeter): 30.22 in. Hg (1023 hPa)
ob: KHTS 301251Z 00000KT 10SM CLR 21/16 A3022 RMK AO2 SLP227 T02060156
cycle: 13

Station Type Date Time Source
KHTS TAF 2022/06/30 12:42 UTC NOAA

TAF KHTS 301139Z 3012/0112 00000KT P6SM SKC
FM301400 VRB04KT P6SM FEW220
FM010000 00000KT P6SM FEW240
FM010600 VRB03KT P6SM FEW200

Example: see airport list